Time;durP1;ratioP1;P1;durP2;ratioP2;P2;SDS_P1;SDS_P2;PMS_P1;PMS_P2;Temp;Humidity;BMP_temperature;BMP_pressure;BME280_temperature;BME280_humidity;BME280_pressure;Samples;Min_cycle;Max_cycle;Signal;HPM_P1;HPM_P2
2022/02/25 00:00:37;;;;;;;8.90;3.97;;;;;;;-2.47;60.93;100555.63;5026407;28;20072;-79
2022/02/25 00:03:05;;;;;;;8.05;4.28;;;;;;;-2.40;61.07;100572.13;5014334;28;20095;-80
2022/02/25 00:05:32;;;;;;;7.43;3.40;;;;;;;-2.46;61.09;100560.78;5030218;28;20038;-80
2022/02/25 00:07:58;;;;;;;6.13;3.40;;;;;;;-2.44;61.35;100561.75;5026758;28;20034;-79
2022/02/25 00:10:23;;;;;;;8.13;4.05;;;;;;;-2.38;61.22;100561.22;4995305;28;20751;-79
2022/02/25 00:12:49;;;;;;;6.15;3.67;;;;;;;-2.40;61.60;100565.34;5008970;28;20507;-79
2022/02/25 00:15:16;;;;;;;6.90;3.70;;;;;;;-2.42;60.98;100560.16;4974004;28;20034;-79
2022/02/25 00:17:42;;;;;;;6.03;3.60;;;;;;;-2.31;61.00;100572.63;4990194;28;20042;-80
2022/02/25 00:20:10;;;;;;;8.23;3.60;;;;;;;-2.47;61.35;100545.41;4990497;28;20044;-82
2022/02/25 00:22:36;;;;;;;7.50;4.07;;;;;;;-2.43;61.63;100535.47;4995184;28;20557;-80
2022/02/25 00:25:02;;;;;;;7.28;3.78;;;;;;;-2.27;61.73;100565.25;4990073;28;20049;-80
2022/02/25 00:27:29;;;;;;;6.38;3.80;;;;;;;-2.28;61.50;100565.13;4997978;28;20668;-78
2022/02/25 00:29:55;;;;;;;7.40;3.88;;;;;;;-2.29;61.21;100563.38;5006840;28;20076;-81
2022/02/25 00:32:21;;;;;;;7.30;3.33;;;;;;;-2.52;61.54;100513.69;4980285;28;20526;-81
2022/02/25 00:34:47;;;;;;;5.47;3.22;;;;;;;-2.38;61.84;100550.16;4989607;28;20038;-80
2022/02/25 00:37:13;;;;;;;12.00;4.15;;;;;;;-2.38;61.55;100545.03;4991530;28;20045;-82
2022/02/25 00:39:39;;;;;;;8.35;3.78;;;;;;;-2.47;61.93;100536.09;5009039;28;20495;-79
2022/02/25 00:42:07;;;;;;;7.18;3.45;;;;;;;-2.60;61.64;100513.28;4997586;28;20041;-79
2022/02/25 00:44:33;;;;;;;7.05;3.67;;;;;;;-2.57;61.68;100523.63;5010085;28;20122;-80
2022/02/25 00:46:58;;;;;;;6.63;3.35;;;;;;;-2.42;61.95;100552.53;5006352;28;20428;-80
2022/02/25 00:49:24;;;;;;;10.00;4.00;;;;;;;-2.56;61.84;100522.84;5007853;28;20807;-80
2022/02/25 00:51:50;;;;;;;11.80;3.67;;;;;;;-2.47;61.63;100546.28;4986293;28;20068;-80
2022/02/25 00:54:17;;;;;;;8.35;3.85;;;;;;;-2.51;61.97;100544.34;5004934;28;20042;-81
2022/02/25 00:56:43;;;;;;;7.20;3.78;;;;;;;-2.56;61.77;100538.13;4990510;28;20045;-80
2022/02/25 00:59:09;;;;;;;8.73;3.70;;;;;;;-2.57;61.97;100534.69;5009694;28;20044;-78
2022/02/25 01:01:35;;;;;;;7.85;3.40;;;;;;;-2.53;62.28;100540.84;5018522;28;20045;-79
2022/02/25 01:04:02;;;;;;;9.43;3.97;;;;;;;-2.63;62.38;100526.69;4990273;28;20045;-81
2022/02/25 01:06:28;;;;;;;9.90;3.80;;;;;;;-2.52;62.24;100545.13;5011901;28;20469;-80
2022/02/25 01:08:54;;;;;;;8.02;3.75;;;;;;;-2.70;61.93;100522.06;4986622;28;20045;-81
2022/02/25 01:11:19;;;;;;;10.70;4.03;;;;;;;-2.59;62.35;100540.50;5011206;28;20045;-79
2022/02/25 01:13:45;;;;;;;8.98;4.30;;;;;;;-2.60;62.68;100538.75;5010198;28;20068;-79
2022/02/25 01:16:11;;;;;;;7.00;4.07;;;;;;;-2.64;62.14;100519.84;4992899;28;20041;-81
2022/02/25 01:18:37;;;;;;;7.10;4.07;;;;;;;-2.61;62.36;100527.66;4992856;28;20042;-79
2022/02/25 01:21:03;;;;;;;9.40;4.00;;;;;;;-2.62;62.41;100540.34;4990525;28;20038;-81
2022/02/25 01:23:29;;;;;;;8.20;3.65;;;;;;;-2.69;62.40;100522.94;5011955;28;20129;-79
2022/02/25 01:25:55;;;;;;;9.27;3.67;;;;;;;-2.83;62.16;100520.50;4961575;28;20060;-79
2022/02/25 01:28:21;;;;;;;7.60;3.60;;;;;;;-2.80;62.59;100524.88;4992588;28;20053;-80
2022/02/25 01:30:47;;;;;;;9.00;3.75;;;;;;;-2.78;62.44;100536.03;4999720;28;20050;-80
2022/02/25 01:33:13;;;;;;;6.88;3.78;;;;;;;-2.89;62.80;100518.50;4976786;28;20192;-79
2022/02/25 01:36:03;;;;;;;8.43;3.70;;;;;;;-2.70;62.88;100531.38;4987796;28;20084;-79
2022/02/25 01:39:26;;;;;;;8.80;4.00;;;;;;;-2.72;63.15;100537.25;4982826;28;20141;-80
2022/02/25 01:45:54;;;;;;;7.22;4.10;;;;;;;-3.53;62.79;100411.28;4946490;28;20062;-80
2022/02/25 01:48:58;;;;;;;7.30;3.33;;;;;;;-3.08;62.78;100500.38;5009932;28;20037;-80
2022/02/25 01:52:06;;;;;;;10.40;4.03;;;;;;;-2.81;63.02;100548.59;4967361;28;20042;-79
2022/02/25 01:56:01;;;;;;;;;;;;;;;-2.85;62.79;100551.75;4996170;28;20060;-78
2022/02/25 01:59:21;;;;;;;8.23;3.92;;;;;;;-2.99;62.54;100554.41;5014726;28;19940;-80
2022/02/25 02:01:51;;;;;;;6.47;4.28;;;;;;;-2.96;63.55;100544.38;5043484;28;20049;-79
2022/02/25 02:04:25;;;;;;;7.32;3.78;;;;;;;-2.95;63.07;100545.25;5025372;28;20060;-78
2022/02/25 02:07:27;;;;;;;8.55;4.47;;;;;;;-2.93;63.44;100543.69;5046066;28;20037;-80
2022/02/25 02:09:59;;;;;;;10.32;4.70;;;;;;;-3.39;63.63;100481.66;5034875;28;20107;-78
2022/02/25 02:12:25;;;;;;;9.77;4.85;;;;;;;-2.92;63.59;100551.44;5022932;28;20038;-79
2022/02/25 02:14:51;;;;;;;8.60;4.38;;;;;;;-3.04;63.45;100536.31;5020835;28;20505;-80
2022/02/25 02:17:17;;;;;;;7.97;4.65;;;;;;;-3.01;63.41;100538.16;5023734;28;20077;-79
2022/02/25 02:19:43;;;;;;;7.90;4.35;;;;;;;-2.90;63.48;100549.84;5004651;28;20115;-79
2022/02/25 02:22:33;;;;;;;8.95;4.20;;;;;;;-2.99;63.84;100535.72;5027733;28;20029;-79
2022/02/25 02:25:10;;;;;;;13.38;4.40;;;;;;;-2.92;63.53;100561.63;4998415;28;20135;-79
2022/02/25 02:30:21;;;;;;;7.57;4.75;;;;;;;-2.97;63.70;100552.81;5049919;28;20041;-78
2022/02/25 02:32:47;;;;;;;8.07;4.28;;;;;;;-3.04;63.87;100541.41;5047753;28;20048;-78
2022/02/25 02:35:14;;;;;;;8.30;4.43;;;;;;;-2.96;64.11;100541.84;5020050;28;20041;-81
2022/02/25 02:37:39;;;;;;;7.15;4.05;;;;;;;-2.92;63.92;100543.78;4997528;28;20123;-81
2022/02/25 02:40:06;;;;;;;8.52;4.13;;;;;;;-2.94;63.81;100547.91;5012947;28;20043;-79
2022/02/25 02:42:33;;;;;;;9.07;4.60;;;;;;;-3.11;63.86;100526.56;5032281;28;20088;-80
2022/02/25 02:44:58;;;;;;;8.75;4.47;;;;;;;-3.00;64.04;100539.03;5013136;28;20037;-80
2022/02/25 02:47:24;;;;;;;10.50;4.75;;;;;;;-3.01;64.00;100532.19;5029688;28;20041;-78
2022/02/25 02:49:50;;;;;;;9.38;4.85;;;;;;;-3.18;63.91;100512.59;5029321;28;20033;-80
2022/02/25 02:52:16;;;;;;;9.10;4.55;;;;;;;-3.03;64.26;100537.19;5011788;28;20037;-81
2022/02/25 02:54:42;;;;;;;8.57;4.30;;;;;;;-3.16;64.14;100510.13;5012827;28;20441;-80
2022/02/25 02:57:08;;;;;;;9.23;4.20;;;;;;;-3.05;64.07;100533.66;5012280;28;20047;-81
2022/02/25 02:59:34;;;;;;;10.07;4.30;;;;;;;-3.17;64.25;100505.81;5029957;28;20043;-79
2022/02/25 03:02:00;;;;;;;14.02;4.53;;;;;;;-3.11;64.49;100518.06;5030329;28;20045;-79
2022/02/25 03:04:26;;;;;;;11.05;4.57;;;;;;;-3.18;64.52;100509.16;5011360;28;20848;-80
2022/02/25 03:06:51;;;;;;;11.02;5.13;;;;;;;-3.24;64.33;100507.13;5012135;28;20118;-79
2022/02/25 03:09:17;;;;;;;9.93;4.28;;;;;;;-3.11;64.33;100521.47;5030455;28;20033;-79
2022/02/25 03:11:43;;;;;;;10.23;4.85;;;;;;;-3.17;64.33;100508.38;5029568;28;21457;-81
2022/02/25 03:14:09;;;;;;;11.48;5.30;;;;;;;-3.09;64.39;100517.34;5028866;28;20037;-81
2022/02/25 03:16:35;;;;;;;8.20;4.75;;;;;;;-3.20;64.17;100498.03;5014654;28;20458;-79
2022/02/25 03:19:01;;;;;;;11.45;5.05;;;;;;;-3.10;64.63;100513.03;5011145;28;20441;-79
2022/02/25 03:21:27;;;;;;;10.25;5.18;;;;;;;-3.17;64.90;100495.63;5000737;28;20037;-80
2022/02/25 03:23:53;;;;;;;9.77;4.60;;;;;;;-3.20;64.72;100492.94;5030340;28;20038;-80
2022/02/25 03:26:18;;;;;;;10.60;5.18;;;;;;;-3.12;64.63;100506.97;5017106;28;20510;-80
2022/02/25 03:28:44;;;;;;;11.05;5.40;;;;;;;-3.17;64.82;100500.72;5009520;28;20042;-79
2022/02/25 03:31:11;;;;;;;9.43;5.18;;;;;;;-3.16;64.96;100489.75;4996635;28;20037;-80
2022/02/25 03:33:37;;;;;;;9.18;5.20;;;;;;;-3.23;65.15;100487.66;5046387;28;20020;-80
2022/02/25 03:36:03;;;;;;;12.55;5.93;;;;;;;-3.22;64.98;100495.38;5044485;28;20506;-82
2022/02/25 03:38:29;;;;;;;11.63;5.07;;;;;;;-3.13;65.43;100509.44;5005645;28;20096;-79
2022/02/25 03:40:55;;;;;;;11.02;5.90;;;;;;;-3.16;65.20;100499.06;5021413;28;20072;-79
2022/02/25 03:43:21;;;;;;;9.77;5.22;;;;;;;-3.16;65.17;100497.38;5014046;28;20022;-80
2022/02/25 03:45:47;;;;;;;10.68;5.63;;;;;;;-3.35;64.91;100473.41;5035032;28;20318;-79
2022/02/25 03:48:13;;;;;;;13.35;5.88;;;;;;;-3.26;65.41;100472.22;5027247;28;20550;-78
2022/02/25 03:50:39;;;;;;;11.98;5.20;;;;;;;-3.15;65.13;100496.59;5012750;28;20080;-80
2022/02/25 03:53:05;;;;;;;11.85;6.10;;;;;;;-3.18;65.27;100486.22;5011130;28;20088;-81
2022/02/25 03:55:31;;;;;;;12.70;6.05;;;;;;;-3.14;65.32;100484.75;5010874;28;20119;-80
2022/02/25 03:57:57;;;;;;;12.68;5.70;;;;;;;-3.23;65.06;100482.56;4992544;28;20072;-80
2022/02/25 04:00:23;;;;;;;10.65;5.80;;;;;;;-3.22;65.59;100479.25;5004050;28;20106;-80
2022/02/25 04:02:50;;;;;;;12.32;5.40;;;;;;;-3.23;65.47;100485.97;4990317;28;20045;-81
2022/02/25 04:05:16;;;;;;;15.20;6.07;;;;;;;-3.14;65.80;100494.94;4992247;28;20064;-79
2022/02/25 04:07:43;;;;;;;12.45;5.85;;;;;;;-3.11;65.58;100498.53;4990534;28;20511;-81
2022/02/25 04:10:12;;;;;;;9.98;5.47;;;;;;;-3.10;65.93;100492.66;4974517;28;20052;-80
2022/02/25 04:12:40;;;;;;;11.20;5.57;;;;;;;-3.08;65.42;100492.72;5006031;28;20053;-80
2022/02/25 04:15:08;;;;;;;12.02;5.82;;;;;;;-3.16;65.62;100477.03;4974364;28;20042;-80
2022/02/25 04:17:34;;;;;;;10.90;5.70;;;;;;;-3.30;65.13;100452.44;5007641;28;20084;-80
2022/02/25 04:20:00;;;;;;;13.02;5.68;;;;;;;-3.19;65.63;100484.47;4989413;28;20084;-80
2022/02/25 04:22:26;;;;;;;14.18;6.13;;;;;;;-3.27;65.63;100463.69;4988735;28;20450;-80
2022/02/25 04:24:52;;;;;;;13.55;5.70;;;;;;;-3.08;66.28;100501.25;5007400;28;20123;-78
2022/02/25 04:27:18;;;;;;;12.23;6.05;;;;;;;-3.14;66.07;100500.03;4998094;28;20192;-80
2022/02/25 04:29:44;;;;;;;13.02;6.30;;;;;;;-3.08;66.17;100492.72;4989836;28;20057;-80
2022/02/25 04:32:11;;;;;;;14.20;6.88;;;;;;;-3.15;65.61;100476.22;4990689;28;20149;-81
2022/02/25 04:34:37;;;;;;;11.05;5.40;;;;;;;-3.10;65.78;100495.22;4990142;28;20038;-82
2022/02/25 04:37:03;;;;;;;15.55;6.60;;;;;;;-3.04;66.60;100489.56;5013604;28;20515;-81
2022/02/25 04:39:29;;;;;;;15.82;7.13;;;;;;;-2.97;66.17;100465.31;4989082;28;20044;-78
2022/02/25 04:41:56;;;;;;;15.82;6.40;;;;;;;-2.59;66.27;100479.34;4996187;28;20035;-78
2022/02/25 04:44:22;;;;;;;13.82;6.95;;;;;;;-2.43;65.79;100464.09;5030027;28;20041;-78
2022/02/25 04:46:48;;;;;;;15.20;6.60;;;;;;;-1.99;65.53;100471.47;5021226;28;20030;-78
2022/02/25 04:49:15;;;;;;;14.38;7.57;;;;;;;-1.56;65.94;100472.84;5009669;28;20069;-78
2022/02/25 04:51:47;;;;;;;15.05;7.50;;;;;;;-1.03;65.09;100477.97;4997016;28;20061;-80
2022/02/25 04:54:13;;;;;;;15.10;6.63;;;;;;;-0.78;64.94;100446.81;5009815;28;20056;-79
2022/02/25 04:56:40;;;;;;;14.93;6.60;;;;;;;-0.23;65.01;100483.44;5029689;28;20042;-80
2022/02/25 04:59:06;;;;;;;14.93;6.25;;;;;;;0.07;64.39;100449.78;5010494;28;20053;-81
2022/02/25 05:01:34;;;;;;;12.35;6.43;;;;;;;0.64;63.36;100474.41;5009781;28;20049;-80
2022/02/25 05:04:00;;;;;;;15.88;6.65;;;;;;;0.90;63.26;100437.03;5015429;28;20068;-79
2022/02/25 05:06:26;;;;;;;12.15;6.28;;;;;;;1.58;62.08;100443.94;5019468;28;20064;-79
2022/02/25 05:08:54;;;;;;;12.65;6.45;;;;;;;1.93;61.51;100406.75;4992849;28;20581;-79
2022/02/25 05:11:21;;;;;;;11.63;6.57;;;;;;;2.85;61.57;100461.25;5009809;28;20047;-80
2022/02/25 05:13:47;;;;;;;11.68;6.15;;;;;;;3.27;61.27;100436.88;5004595;28;20041;-80
2022/02/25 05:20:15;;;;;;;12.43;6.10;;;;;;;4.56;59.07;100445.63;5008112;28;20065;-80
2022/02/25 05:21:52;;;;;;;11.57;6.00;;;;;;;5.12;58.25;100451.34;5026787;28;20053;-80
2022/02/25 05:24:18;;;;;;;11.75;6.13;;;;;;;5.48;57.17;100435.78;4999361;28;20038;-80
2022/02/25 05:26:44;;;;;;;11.00;6.32;;;;;;;5.91;55.85;100449.59;5026340;28;20457;-79
2022/02/25 05:29:10;;;;;;;10.38;6.47;;;;;;;6.37;54.93;100438.44;5008493;28;20559;-81
2022/02/25 05:31:43;;;;;;;9.35;5.93;;;;;;;7.01;54.43;100419.69;4991569;28;20089;-79
2022/02/25 05:34:09;;;;;;;12.88;6.95;;;;;;;7.84;53.35;100449.34;5002290;28;20051;-79
2022/02/25 05:36:35;;;;;;;12.50;6.70;;;;;;;8.02;51.52;100424.53;5025251;28;20510;-81
2022/02/25 05:39:03;;;;;;;10.65;6.60;;;;;;;8.19;51.07;100418.66;5026838;28;20049;-79
2022/02/25 05:41:29;;;;;;;11.80;6.70;;;;;;;8.25;49.49;100418.72;4985781;28;20036;-81
2022/02/25 05:43:56;;;;;;;11.10;6.38;;;;;;;8.97;49.81;100441.03;4990631;28;20045;-80
2022/02/25 05:46:22;;;;;;;11.80;6.32;;;;;;;9.73;47.79;100433.72;5025101;28;20041;-78
2022/02/25 05:48:48;;;;;;;11.93;6.18;;;;;;;10.42;47.63;100420.09;4992251;28;20045;-80
2022/02/25 05:51:14;;;;;;;10.48;6.35;;;;;;;10.81;45.57;100401.91;5027394;28;20037;-82
2022/02/25 05:53:40;;;;;;;11.18;6.70;;;;;;;11.13;44.44;100378.44;5020945;28;20095;-80
2022/02/25 05:56:06;;;;;;;10.85;6.78;;;;;;;11.56;43.27;100429.56;5002663;28;20144;-80
2022/02/25 05:58:32;;;;;;;11.95;6.88;;;;;;;11.93;42.05;100420.75;5029343;28;20141;-80
2022/02/25 06:00:58;;;;;;;11.25;6.82;;;;;;;12.27;41.18;100417.13;4995533;28;20139;-78
2022/02/25 06:03:27;;;;;;;9.68;6.88;;;;;;;12.99;40.78;100414.84;5007963;28;20037;-82
2022/02/25 06:05:53;;;;;;;11.77;7.15;;;;;;;13.05;38.79;100417.41;5008132;28;20453;-81
2022/02/25 06:08:19;;;;;;;9.77;6.88;;;;;;;13.31;38.92;100431.97;5029925;28;20053;-79
2022/02/25 06:10:45;;;;;;;11.85;7.65;;;;;;;13.62;38.32;100413.34;5015336;28;20037;-80
2022/02/25 06:13:11;;;;;;;11.57;6.78;;;;;;;14.24;37.39;100413.44;5030282;28;20048;-79
2022/02/25 06:15:41;;;;;;;11.13;7.00;;;;;;;14.94;36.67;100424.63;5012050;28;20041;-81
2022/02/25 06:18:07;;;;;;;12.80;7.45;;;;;;;15.38;35.39;100415.09;5018050;28;20053;-81
2022/02/25 06:20:33;;;;;;;12.32;7.93;;;;;;;16.13;34.85;100385.59;5038574;28;20041;-80
2022/02/25 06:22:59;;;;;;;10.45;7.07;;;;;;;17.20;33.35;100409.31;5038446;28;20034;-78
2022/02/25 06:25:25;;;;;;;10.07;6.97;;;;;;;17.68;32.50;100418.50;5026084;28;20443;-84
2022/02/25 06:27:51;;;;;;;11.05;7.68;;;;;;;18.40;30.99;100408.50;5025470;28;20163;-84
2022/02/25 06:30:19;;;;;;;13.00;7.72;;;;;;;18.26;30.40;100401.03;5018034;28;20064;-82
2022/02/25 06:32:50;;;;;;;10.18;7.15;;;;;;;18.16;29.69;100374.13;5005276;28;20045;-81
2022/02/25 06:35:26;;;;;;;10.20;7.47;;;;;;;18.48;29.43;100380.13;5016517;28;20051;-82
2022/02/25 06:37:55;;;;;;;10.73;8.05;;;;;;;18.17;28.69;100358.28;5034981;28;20041;-82
2022/02/25 06:40:21;;;;;;;9.13;7.00;;;;;;;18.45;28.32;100398.66;5016270;28;20048;-83
2022/02/25 06:42:50;;;;;;;9.63;7.20;;;;;;;18.11;28.08;100362.88;5015871;28;20052;-81
2022/02/25 06:45:20;;;;;;;10.32;7.25;;;;;;;18.74;27.37;100386.31;5014590;28;20131;-82
2022/02/25 06:47:47;;;;;;;10.15;7.32;;;;;;;19.15;27.31;100378.78;5013008;28;20692;-85
2022/02/25 06:50:49;;;;;;;12.93;7.68;;;;;;;19.71;26.16;100363.59;5011325;28;20396;-85
2022/02/25 06:53:18;;;;;;;9.82;7.30;;;;;;;19.63;27.01;100361.25;4981297;28;20061;-85
2022/02/25 06:56:31;;;;;;;11.10;7.60;;;;;;;20.35;26.57;100414.84;4998110;28;20124;-80
2022/02/25 06:59:01;;;;;;;10.02;7.43;;;;;;;21.50;25.93;100418.00;4994704;28;20045;-81
2022/02/25 07:01:38;;;;;;;13.75;9.90;;;;;;;21.65;25.19;100300.84;5005695;28;20139;-81
2022/02/25 07:04:14;;;;;;;11.70;7.15;;;;;;;22.75;23.75;100399.81;5000631;28;20056;-82
2022/02/25 07:06:56;;;;;;;13.15;7.78;;;;;;;22.12;23.89;100322.47;5018398;28;20041;-83
2022/02/25 07:09:25;;;;;;;10.35;8.23;;;;;;;22.17;23.51;100333.72;5024057;28;20056;-81
2022/02/25 07:12:12;;;;;;;9.18;7.72;;;;;;;22.68;23.19;100317.06;5019351;28;20522;-83
2022/02/25 07:14:38;;;;;;;11.55;8.15;;;;;;;23.08;22.78;100399.91;5039840;28;20073;-81
2022/02/25 07:17:07;;;;;;;9.85;7.90;;;;;;;22.78;22.04;100330.72;5035336;28;20068;-83
2022/02/25 07:19:33;;;;;;;10.65;7.40;;;;;;;22.54;22.27;100337.19;5024085;28;20053;-81
2022/02/25 07:22:33;;;;;;;10.10;7.63;;;;;;;23.08;21.84;100383.97;5026123;28;20060;-83
2022/02/25 07:25:19;;;;;;;10.02;7.80;;;;;;;23.35;21.71;100369.38;4963975;28;20055;-83
2022/02/25 07:28:16;;;;;;;10.90;8.13;;;;;;;23.27;21.56;100335.28;4992157;28;20035;-81
2022/02/25 07:31:42;;;;;;;;;;;;;;;;;;;;;
2022/02/25 07:34:18;;;;;;;12.30;8.02;;;;;;;23.31;21.59;100328.84;5017572;28;20048;-82
2022/02/25 07:36:48;;;;;;;12.77;7.63;;;;;;;23.69;21.35;100317.94;5033360;28;20147;-81
2022/02/25 07:39:18;;;;;;;10.85;7.55;;;;;;;24.27;20.94;100310.28;4986813;28;20037;-82
2022/02/25 07:41:54;;;;;;;9.00;7.32;;;;;;;25.17;20.25;100379.50;5018891;28;20060;-80
2022/02/25 07:44:39;;;;;;;11.20;7.32;;;;;;;25.22;19.99;100365.88;5018141;28;20047;-81
2022/02/25 07:47:16;;;;;;;9.75;7.50;;;;;;;25.04;20.12;100359.91;5015383;28;20060;-83
2022/02/25 07:50:13;;;;;;;10.73;7.47;;;;;;;23.66;20.30;100299.53;5013428;28;20033;-82
2022/02/25 07:55:30;;;;;;;8.13;7.22;;;;;;;24.46;19.96;100373.88;5020755;28;20104;-82
2022/02/25 07:58:00;;;;;;;9.48;7.57;;;;;;;24.24;19.63;100299.81;5033455;28;20041;-84
2022/02/25 08:00:29;;;;;;;10.35;7.55;;;;;;;24.69;19.95;100352.19;5022525;28;20061;-84
2022/02/25 08:03:03;;;;;;;10.75;7.43;;;;;;;25.07;19.98;100304.66;4993229;28;20053;-85
2022/02/25 08:08:59;;;;;;;11.05;7.30;;;;;;;26.08;18.75;100327.63;4987234;28;20055;-83
2022/02/25 08:11:38;;;;;;;10.07;7.88;;;;;;;26.11;19.17;100331.91;4995588;28;20069;-80
2022/02/25 08:14:47;;;;;;;;;;;;;;;;;;;;;
2022/02/25 08:17:48;;;;;;;9.70;6.88;;;;;;;26.27;18.24;100299.78;5004202;28;20522;-84
2022/02/25 08:24:09;;;;;;;9.85;7.18;;;;;;;27.31;17.98;100343.44;4902933;29;20115;-87
2022/02/25 08:26:35;;;;;;;8.18;6.40;;;;;;;27.57;17.87;100309.53;5016970;28;20038;-85
2022/02/25 08:29:21;;;;;;;10.63;6.95;;;;;;;27.69;17.72;100355.06;4998715;28;20564;-87
2022/02/25 08:32:06;;;;;;;9.38;6.85;;;;;;;27.60;17.53;100359.22;5015520;28;20038;-85
2022/02/25 08:35:08;;;;;;;;;;;;;;;;;;;;;
2022/02/25 08:37:45;;;;;;;12.07;7.28;;;;;;;25.00;18.46;100244.75;5012820;28;20038;-86
2022/02/25 08:40:14;;;;;;;8.23;6.47;;;;;;;25.75;18.36;100362.66;4982627;28;20135;-84
2022/02/25 08:43:29;;;;;;;14.45;7.35;;;;;;;25.77;18.29;100360.75;5013761;28;20041;-83
2022/02/25 08:46:47;;;;;;;9.90;6.35;;;;;;;25.81;17.24;100280.50;4986284;28;20064;-84
2022/02/25 08:50:08;;;;;;;8.98;6.78;;;;;;;25.81;18.00;100288.50;4987733;28;20053;-84
2022/02/25 08:52:36;;;;;;;8.10;6.53;;;;;;;25.25;17.79;100358.59;5004768;28;20042;-87
2022/02/25 08:55:03;;;;;;;7.53;6.60;;;;;;;24.99;18.87;100343.34;5012275;28;20144;-85
2022/02/25 08:57:42;;;;;;;7.93;6.50;;;;;;;25.25;18.27;100280.50;5014790;28;20037;-81
2022/02/25 09:04:43;;;;;;;8.18;5.82;;;;;;;25.08;18.01;100245.16;5016507;28;20061;-88
2022/02/25 09:07:17;;;;;;;7.50;6.05;;;;;;;24.91;17.93;100288.78;5006136;28;20456;-87
2022/02/25 09:10:24;;;;;;;;;;;;;;;;;;;;;
2022/02/25 09:13:08;;;;;;;8.85;6.05;;;;;;;23.09;18.65;100176.03;5027873;28;20038;-86
2022/02/25 09:16:59;;;;;;;;;;;;;;;;;;;;;
2022/02/25 09:19:22;;;;;;;8.13;5.72;;;;;;;24.71;18.90;100297.13;5033489;28;20056;-84
2022/02/25 09:21:48;;;;;;;9.52;5.90;;;;;;;25.32;18.05;100225.03;5038736;28;20037;-84
2022/02/25 09:24:19;;;;;;;9.63;6.22;;;;;;;26.26;17.88;100212.72;5006188;28;20056;-84
2022/02/25 09:27:10;;;;;;;7.57;5.88;;;;;;;26.60;17.04;100205.03;5016982;28;20312;-84
2022/02/25 09:29:46;;;;;;;9.07;6.43;;;;;;;25.52;16.26;100234.44;5035071;28;20528;-86
2022/02/25 09:35:39;;;;;;;7.35;6.15;;;;;;;25.88;18.09;100221.47;5005717;28;20140;-83
2022/02/25 09:38:05;;;;;;;8.23;5.90;;;;;;;27.18;17.28;100284.69;5009795;28;20048;-83
2022/02/25 09:40:35;;;;;;;7.68;6.03;;;;;;;26.44;16.97;100264.81;5013222;28;20037;-84
2022/02/25 09:43:08;;;;;;;6.82;6.15;;;;;;;25.75;17.57;100202.78;4995838;28;20216;-87
2022/02/25 09:46:31;;;;;;;6.90;5.63;;;;;;;25.05;17.08;100167.28;4986648;28;20176;-85
2022/02/25 09:49:03;;;;;;;6.22;5.32;;;;;;;23.95;17.71;100198.69;5010863;28;20567;-86
2022/02/25 09:51:32;;;;;;;6.90;6.20;;;;;;;22.56;17.86;100155.03;4994318;28;20076;-81
2022/02/25 09:54:09;;;;;;;8.07;6.10;;;;;;;22.35;18.33;100185.28;5024114;28;20045;-79
2022/02/25 09:56:35;;;;;;;7.68;5.40;;;;;;;21.95;19.31;100196.13;5025691;28;20060;-82
2022/02/25 09:59:02;;;;;;;6.93;5.20;;;;;;;21.90;20.12;100198.13;5018356;28;20072;-82
2022/02/25 10:02:01;;;;;;;7.53;5.30;;;;;;;21.72;18.75;100197.28;5030642;28;20256;-82
2022/02/25 10:04:33;;;;;;;5.40;4.90;;;;;;;20.96;19.20;100159.34;5025157;28;20095;-82
2022/02/25 10:07:46;;;;;;;6.20;5.07;;;;;;;20.90;19.26;100223.97;5013219;28;20434;-81
2022/02/25 10:10:15;;;;;;;5.57;4.82;;;;;;;19.46;19.89;100140.19;4998625;28;21206;-82
2022/02/25 10:12:49;;;;;;;9.15;5.07;;;;;;;20.10;19.63;100248.53;5011789;28;20530;-82
2022/02/25 10:15:37;;;;;;;6.93;5.22;;;;;;;19.76;20.71;100232.25;5032982;28;20048;-79
2022/02/25 10:18:11;;;;;;;7.00;5.05;;;;;;;20.28;20.16;100239.84;4997067;28;20068;-81
2022/02/25 10:20:47;;;;;;;5.75;4.40;;;;;;;19.82;20.09;100233.78;5013564;28;20476;-80
2022/02/25 10:23:35;;;;;;;6.47;4.70;;;;;;;19.04;20.73;100247.31;5013634;28;20140;-80
2022/02/25 10:26:16;;;;;;;6.78;4.72;;;;;;;16.96;21.75;100232.06;5014836;28;20065;-81
2022/02/25 10:28:48;;;;;;;7.88;4.72;;;;;;;14.87;23.29;100206.41;4982623;28;20124;-83
2022/02/25 10:31:32;;;;;;;5.75;4.57;;;;;;;13.55;24.50;100219.09;4999548;28;20069;-81
2022/02/25 10:34:13;;;;;;;5.70;4.50;;;;;;;12.06;25.44;100171.19;5034445;28;20067;-81
2022/02/25 10:37:11;;;;;;;6.38;4.68;;;;;;;10.65;27.16;100101.75;5032340;28;20041;-82
2022/02/25 10:39:37;;;;;;;5.82;4.53;;;;;;;11.07;28.12;100227.41;5001729;28;20053;-82
2022/02/25 10:42:17;;;;;;;6.18;4.45;;;;;;;10.54;28.75;100175.50;5013309;28;20064;-82
2022/02/25 10:44:49;;;;;;;6.32;5.00;;;;;;;10.58;29.07;100230.16;5011659;28;20125;-80
2022/02/25 10:47:34;;;;;;;9.55;5.82;;;;;;;9.61;29.97;100144.38;5017208;28;20041;-81
2022/02/25 10:50:26;;;;;;;7.30;4.90;;;;;;;9.75;29.98;100175.56;5004322;28;20048;-81
2022/02/25 10:52:53;;;;;;;8.32;5.50;;;;;;;9.61;30.20;100205.88;5013018;28;20061;-81
2022/02/25 10:55:25;;;;;;;8.45;5.75;;;;;;;9.04;31.63;100147.75;5004990;28;20044;-82
2022/02/25 10:57:56;;;;;;;10.75;5.55;;;;;;;8.74;32.40;100167.53;5012891;28;20109;-81
2022/02/25 11:00:24;;;;;;;6.82;5.22;;;;;;;8.74;32.96;100211.63;5011982;28;20071;-82
2022/02/25 11:02:52;;;;;;;6.68;4.80;;;;;;;8.44;33.27;100217.47;5026186;28;20048;-82
2022/02/25 11:05:27;;;;;;;7.03;5.00;;;;;;;8.27;33.52;100207.88;5015104;28;20042;-81
2022/02/25 11:07:55;;;;;;;7.03;4.63;;;;;;;8.19;34.07;100199.16;4949036;28;20068;-79
2022/02/25 11:10:24;;;;;;;7.82;5.00;;;;;;;7.99;34.21;100202.47;5010477;28;20045;-80
2022/02/25 11:12:51;;;;;;;10.35;5.38;;;;;;;7.71;34.70;100203.94;4993926;28;20038;-81
2022/02/25 11:15:23;;;;;;;6.63;4.55;;;;;;;7.51;35.14;100196.84;5013702;28;20025;-82
2022/02/25 11:17:50;;;;;;;8.32;4.78;;;;;;;7.45;35.60;100199.38;5014065;28;20052;-82
2022/02/25 11:20:21;;;;;;;6.32;4.82;;;;;;;7.50;35.44;100205.47;4981861;28;20070;-81
2022/02/25 11:22:50;;;;;;;7.63;4.60;;;;;;;7.08;36.48;100150.66;5012719;28;20042;-80
2022/02/25 11:25:17;;;;;;;6.25;4.10;;;;;;;6.78;36.42;100148.59;4982640;28;20061;-80
2022/02/25 11:27:43;;;;;;;7.13;4.10;;;;;;;6.53;36.73;100145.69;4997873;28;20038;-81
2022/02/25 11:30:15;;;;;;;7.00;4.43;;;;;;;6.80;37.75;100188.28;5015451;28;20073;-81
2022/02/25 11:32:54;;;;;;;6.90;4.63;;;;;;;6.36;37.30;100131.69;5019579;28;20057;-83
2022/02/25 11:35:29;;;;;;;6.30;4.15;;;;;;;6.26;37.51;100136.75;5018476;28;20042;-82
2022/02/25 11:38:03;;;;;;;5.43;3.45;;;;;;;6.28;38.39;100196.19;5008630;28;20037;-82
2022/02/25 11:40:50;;;;;;;6.07;3.83;;;;;;;6.20;38.37;100178.00;4993342;28;20054;-82
2022/02/25 11:43:30;;;;;;;6.38;3.97;;;;;;;6.06;38.64;100164.00;4978082;28;20046;-80
2022/02/25 11:45:56;;;;;;;7.07;4.47;;;;;;;6.08;38.79;100177.78;5016909;28;20037;-84
2022/02/25 11:48:43;;;;;;;7.72;4.28;;;;;;;6.01;39.46;100145.81;5024132;28;20101;-82
2022/02/25 11:51:36;;;;;;;8.25;4.40;;;;;;;6.08;38.89;100165.75;5009563;28;20033;-80
2022/02/25 11:54:26;;;;;;;5.35;3.35;;;;;;;5.88;39.48;100171.44;5015836;28;20053;-81
2022/02/25 11:56:56;;;;;;;5.65;3.38;;;;;;;5.72;38.75;100175.47;4999141;28;20054;-82
2022/02/25 11:59:22;;;;;;;9.95;4.30;;;;;;;5.62;39.62;100158.13;4995695;28;20411;-83
2022/02/25 12:02:06;;;;;;;8.05;4.30;;;;;;;5.19;39.58;100087.66;5003148;28;20033;-81
2022/02/25 12:04:36;;;;;;;7.85;4.63;;;;;;;5.41;40.26;100132.78;5020288;28;20079;-80
2022/02/25 12:07:13;;;;;;;5.55;4.30;;;;;;;5.55;39.74;100149.38;5046294;28;20045;-80
2022/02/25 12:10:13;;;;;;;7.32;4.25;;;;;;;5.49;40.65;100150.97;5022452;28;20056;-83
2022/02/25 12:12:46;;;;;;;9.15;4.35;;;;;;;5.32;40.53;100140.34;4995546;28;20049;-83
2022/02/25 12:15:19;;;;;;;7.25;3.92;;;;;;;4.78;40.98;100076.59;5003641;28;20053;-81
2022/02/25 12:17:55;;;;;;;6.25;4.30;;;;;;;4.79;41.07;100124.75;5029827;28;20087;-81
2022/02/25 12:20:24;;;;;;;6.07;3.88;;;;;;;4.67;41.44;100127.09;4996466;28;20049;-82
2022/02/25 12:23:02;;;;;;;6.20;4.03;;;;;;;4.43;41.93;100093.94;5029037;28;20037;-81
2022/02/25 12:25:41;;;;;;;7.30;4.25;;;;;;;4.65;42.65;100126.19;5012405;28;20055;-83